Aérodrome :
LOGIN :

S'inscrire | Disclaimer

   EN    FR    IT 

 










Légende :    VFR   VFR Marginal   IFR   IFR Intensif   IFR Très Intensif
Visi : 
Plafond : 
>= 8 km
>= 3000ft
5 à 8 km
1000 à 3000 ft
1500m à 5 km
500 à 1000 ft
800 à 1500m
200 à 500 ft
< 800m
< 200 ft
Symboles :   Orages  Brouillard  Fortes neiges  Fortes précipitations  Vent > 20 kt
SIGMETs :   Divers  Orages  Givrage  Turbulence  Onde Orograph.  Cendres Volcan.







- Altitude de l'aérodrome : 821 ft
- Code IATA : LYS
- Voir les cartes d'approche


LFLL - Lyon St Exupéry / Satolas

DERNIER METAR :
  • 261730Z 01006KT 9999 -RA SCT018 BKN025 06/04 Q1012 NOSIG

METARs EXPIRÉS :
  • 261700Z 35008KT 9999 -RA SCT018 BKN025 06/05 Q1012 NOSIG
  • 261630Z 35008KT 320V020 9999 SCT014 BKN024 07/04 Q1012 NOSIG
  • 261600Z 36007KT 9999 SCT017 BKN024 07/04 Q1012 NOSIG
  • 261530Z 36009KT 9999 SCT012 BKN015 06/04 Q1011 NOSIG
  • 261500Z 35010KT 9999 SCT012 BKN018 06/04 Q1012 NOSIG
  • 261430Z 01007KT 9999 SCT016 BKN023 07/04 Q1011 NOSIG

TAF TAF LFLL
Valide du 26 à 18h jusqu'au 28 à 00h UTC


261700Z 2618/2724 34010KT 9999 BKN015
TEMPO 2618/2620 -RA
TEMPO 2620/2706 BKN009
PROB30
TEMPO 2701/2706 BKN004
TEMPO 2710/2718 SCT045TCU
Pas de NOTAMs connus pour ce terrain.



MET'MAP, la Météo Aéronautique d'un coup d'oeil ! - Copyright ORBIFLY Décembre 2007 - Disclaimer

ORBIFLY MET'MAP TEAM :

Programmation & Développement : Alexandra Zaïnal
Conception & Développement : Baudouin d'Aumeries
Co-Programmation & Développement : Marc-Olivier Méhu
Soutien technique & logistique : Manuel Goepfert

Contact : metmap@orbifly.com




SOURCES & CREDITS :

   NOAA